»·PEaware :: N4732C KAJO-KPSP

N4732C :: KAJO-KPSP

FLIGHT INFORMATION

Flight Status: Arrived
Operator: Privately registered:
United States
More flights under this callsign
Pilot: Alli C. (3122)
Aircraft: CESSNA 172 SKYHAWK
(C172)
More flights by this aircraft type
Origin: KAJO Corona Mun
United States
Destination: KPSP Palm Springs Intl
United States
More flights between these airports :: More routes between these airports
Route: +PDZ NIKKL V64 TRM
File this flight plan on PilotEdge
Remarks:
Altitude:
(Current/Filed)
9,000ft
Speed:
(Current/Filed)
0kts
Departed: 28-Sep-17 03:58 PM
Arrived: 28-Sep-17 04:37 PM
Distance/Time
Traveled:
55nm/0:39
Distance/Time
To Go:
Arrived

Flight Plot

Page will automatically refresh every two minutes.

Flight plan parsing failed; only flown route is shown


Map Options




Map Legend


Flown Route
Filed Route
Departure Airport
Arrival Airport
Navaid (VOR, NDB)
Fix

Horizontal Profiles

Position Reports

Time Latitude Longitude Heading Altitude Ground
Speed
28-Sep-17 15:18 33.896959 -117.601726 180 536ft 0kts
28-Sep-17 15:19 33.896959 -117.601726 180 536ft 0kts
28-Sep-17 15:20 33.896959 -117.601726 180 536ft 0kts
28-Sep-17 15:21 33.896959 -117.601726 180 536ft 0kts
28-Sep-17 15:22 33.896959 -117.601726 180 536ft 0kts
28-Sep-17 15:23 33.896959 -117.601726 180 536ft 0kts
28-Sep-17 15:24 33.896959 -117.601726 180 536ft 0kts
28-Sep-17 15:25 33.896959 -117.601726 180 536ft 0kts
28-Sep-17 15:26 33.896959 -117.601726 180 536ft 0kts
28-Sep-17 15:27 33.896959 -117.601726 180 536ft 0kts
28-Sep-17 15:28 33.896959 -117.601726 180 536ft 0kts
28-Sep-17 15:29 33.896959 -117.601726 180 536ft 0kts
28-Sep-17 15:30 33.896959 -117.601726 180 536ft 0kts
28-Sep-17 15:31 33.896959 -117.601726 180 536ft 0kts
28-Sep-17 15:32 33.896959 -117.601726 180 536ft 0kts
28-Sep-17 15:33 33.896959 -117.601726 180 536ft 0kts
28-Sep-17 15:34 33.896959 -117.601726 180 536ft 0kts
28-Sep-17 15:35 33.896959 -117.601726 180 536ft 0kts
28-Sep-17 15:36 33.896959 -117.601726 180 536ft 0kts
28-Sep-17 15:37 33.896959 -117.601726 180 536ft 0kts
28-Sep-17 15:38 33.896959 -117.601726 180 536ft 0kts
28-Sep-17 15:39 33.896959 -117.601726 180 536ft 0kts
28-Sep-17 15:40 33.896959 -117.601726 180 536ft 0kts
28-Sep-17 15:41 33.896959 -117.601726 180 536ft 0kts
28-Sep-17 15:42 33.896959 -117.601726 180 536ft 0kts
28-Sep-17 15:43 33.896959 -117.601726 180 536ft 0kts
28-Sep-17 15:44 33.896959 -117.601726 180 536ft 0kts
28-Sep-17 15:45 33.896959 -117.601726 180 536ft 0kts
28-Sep-17 15:46 33.896959 -117.601726 180 536ft 0kts
28-Sep-17 15:47 33.896959 -117.601726 180 536ft 0kts
28-Sep-17 15:48 33.896959 -117.601726 180 536ft 0kts
28-Sep-17 15:49 33.896959 -117.601726 180 536ft 0kts
28-Sep-17 15:50 33.896959 -117.601726 180 536ft 0kts
28-Sep-17 15:51 33.896959 -117.601726 180 536ft 0kts
28-Sep-17 15:52 33.896959 -117.601726 180 536ft 0kts
28-Sep-17 15:53 33.896959 -117.601726 180 536ft 0kts
28-Sep-17 15:54 33.896959 -117.601726 180 536ft 0kts
28-Sep-17 15:55 33.896959 -117.601726 180 536ft 0kts
28-Sep-17 15:56 33.896959 -117.601726 180 536ft 0kts
28-Sep-17 15:57 33.896959 -117.601726 180 536ft 0kts
28-Sep-17 15:58 33.897267 -117.600464 89 536ft 24kts
28-Sep-17 15:59 33.897268 -117.597598 65 536ft 0kts
28-Sep-17 16:00 33.897327 -117.597555 359 536ft 0kts
28-Sep-17 16:01 33.897344 -117.597554 3 536ft 3kts
28-Sep-17 16:02 33.897583 -117.604486 271 600ft 71kts
28-Sep-17 16:03 33.895655 -117.626799 300 1472ft 76kts
28-Sep-17 16:04 33.915842 -117.618046 59 2166ft 103kts
28-Sep-17 16:05 33.914590 -117.583133 100 2589ft 117kts
28-Sep-17 16:06 33.923135 -117.547414 64 2566ft 111kts
28-Sep-17 16:07 33.924300 -117.511543 101 2568ft 109kts
28-Sep-17 16:08 33.915405 -117.479150 109 3081ft 103kts
28-Sep-17 16:09 33.908799 -117.445231 98 3759ft 106kts
28-Sep-17 16:10 33.904297 -117.410513 102 4458ft 103kts
28-Sep-17 16:11 33.899323 -117.376706 98 5137ft 101kts
28-Sep-17 16:12 33.894926 -117.343841 98 5811ft 98kts
28-Sep-17 16:13 33.890767 -117.311995 97 6483ft 94kts
28-Sep-17 16:14 33.886806 -117.281401 97 7149ft 90kts
28-Sep-17 16:15 33.883082 -117.252408 97 7800ft 84kts
28-Sep-17 16:16 33.879752 -117.226088 95 8391ft 77kts
28-Sep-17 16:17 33.876253 -117.197919 97 8847ft 95kts
28-Sep-17 16:18 33.872195 -117.162977 88 9239ft 112kts
28-Sep-17 16:19 33.876747 -117.124069 76 9494ft 126kts
28-Sep-17 16:20 33.876200 -117.081555 88 9482ft 123kts
28-Sep-17 16:21 33.877074 -117.043647 81 9485ft 116kts
28-Sep-17 16:22 33.877957 -117.006401 86 9483ft 116kts
28-Sep-17 16:23 33.877128 -116.969749 90 9548ft 110kts
28-Sep-17 16:24 33.875378 -116.935177 90 9669ft 103kts
28-Sep-17 16:25 33.877022 -116.900653 69 9215ft 110kts
28-Sep-17 16:26 33.886722 -116.867444 69 8452ft 109kts
28-Sep-17 16:27 33.896668 -116.834792 69 7684ft 108kts
28-Sep-17 16:28 33.903605 -116.801215 88 6894ft 107kts
28-Sep-17 16:29 33.904180 -116.766826 88 6131ft 107kts
28-Sep-17 16:30 33.905607 -116.731582 88 5346ft 108kts
28-Sep-17 16:31 33.907461 -116.695484 88 4507ft 111kts
28-Sep-17 16:32 33.908765 -116.658686 90 3621ft 111kts
28-Sep-17 16:33 33.908782 -116.621615 93 2729ft 111kts
28-Sep-17 16:34 33.892870 -116.597391 139 2473ft 89kts
28-Sep-17 16:35 33.874349 -116.577367 147 2397ft 94kts
28-Sep-17 16:36 33.852067 -116.564091 153 2018ft 88kts
28-Sep-17 16:37 33.830656 -116.549399 147 1592ft 90kts
28-Sep-17 16:38 33.825526 -116.525954 333 1399ft 87kts
28-Sep-17 16:39 33.841453 -116.527364 79 1077ft 79kts
28-Sep-17 16:40 33.832133 -116.509841 151 481ft 46kts
28-Sep-17 16:41 33.825708 -116.503389 117 480ft 19kts
28-Sep-17 16:42 33.825537 -116.502927 107 480ft 0kts
28-Sep-17 16:43 33.824627 -116.501547 144 480ft 28kts
28-Sep-17 16:44 33.820102 -116.495592 51 480ft 9kts
28-Sep-17 16:45 33.820120 -116.495566 48 480ft 0kts
28-Sep-17 16:46 33.820120 -116.495566 48 480ft 0kts
28-Sep-17 16:47 33.820120 -116.495566 48 480ft 0kts
28-Sep-17 16:48 33.820120 -116.495566 48 480ft 0kts
28-Sep-17 16:49 33.820204 -116.494943 148 480ft 0kts

Navigation Log

Ident Type
Flight plan parsing failed, navigation log unavailable